createdAt,value
2023-05-23T00:00:41.122Z,13.11
2023-05-23T00:03:11.265Z,13.12
2023-05-23T00:05:39.620Z,13.14
2023-05-23T00:08:18.410Z,13.18
2023-05-23T00:10:48.097Z,13.24
2023-05-23T00:13:16.284Z,13.18
2023-05-23T00:15:44.750Z,13.02
2023-05-23T00:18:13.016Z,13.27
2023-05-23T00:20:42.779Z,13.01
2023-05-23T00:23:13.903Z,13.07
2023-05-23T00:25:42.318Z,13.15
2023-05-23T00:28:12.342Z,13.15
2023-05-23T00:30:40.807Z,13.08
2023-05-23T00:33:09.578Z,13.29
2023-05-23T00:35:38.995Z,13.25
2023-05-23T00:38:33.334Z,13.26
2023-05-23T00:41:01.935Z,13.24
2023-05-23T00:43:33.852Z,13.19
2023-05-23T00:46:02.510Z,13.09
2023-05-23T00:48:31.825Z,13.21
2023-05-23T00:51:00.168Z,13.18
2023-05-23T00:53:29.074Z,13.26
2023-05-23T00:55:57.312Z,13.05
2023-05-23T00:58:26.325Z,13.13
2023-05-23T01:00:57.263Z,12.98
2023-05-23T01:03:28.786Z,12.88
2023-05-23T01:05:57.907Z,13.02
2023-05-23T01:08:29.885Z,13.00
2023-05-23T01:11:03.663Z,12.86
2023-05-23T01:13:48.971Z,12.98
2023-05-23T01:16:30.267Z,12.92
2023-05-23T01:19:08.754Z,12.92
2023-05-23T01:21:39.706Z,12.89
2023-05-23T01:24:36.361Z,12.85
2023-05-23T01:27:22.024Z,12.73
2023-05-23T01:29:58.535Z,12.82
2023-05-23T01:32:31.803Z,12.77
2023-05-23T01:35:02.028Z,12.90
2023-05-23T01:37:33.765Z,12.81
2023-05-23T01:40:05.946Z,12.84
2023-05-23T01:42:38.647Z,12.90
2023-05-23T01:45:17.761Z,12.65
2023-05-23T01:48:12.044Z,12.78
2023-05-23T01:50:45.736Z,12.66
2023-05-23T01:53:15.437Z,12.56
2023-05-23T01:55:51.423Z,12.36
2023-05-23T01:58:20.607Z,12.53
2023-05-23T02:01:06.316Z,12.28
2023-05-23T02:03:43.791Z,12.46
2023-05-23T02:06:12.278Z,12.17
2023-05-23T02:08:40.756Z,12.22
2023-05-23T02:11:10.891Z,12.05
2023-05-23T02:13:40.470Z,12.27
2023-05-23T02:16:14.577Z,12.03
2023-05-23T02:18:46.505Z,12.02
2023-05-23T02:21:16.903Z,11.96
2023-05-23T02:24:10.716Z,12.04
2023-05-23T02:26:53.364Z,11.97
2023-05-23T02:29:34.483Z,11.82
2023-05-23T02:32:08.772Z,12.02
2023-05-23T02:34:50.980Z,11.81
2023-05-23T02:37:22.383Z,11.95
2023-05-23T02:40:01.849Z,11.82
2023-05-23T02:42:39.127Z,11.91
2023-05-23T02:49:02.845Z,11.63
2023-05-23T02:51:33.306Z,11.77
2023-05-23T02:54:06.762Z,11.63
2023-05-23T02:56:34.863Z,11.71
2023-05-23T02:59:05.072Z,11.64
2023-05-23T03:01:43.838Z,11.54
2023-05-23T03:04:20.378Z,11.55
2023-05-23T03:06:55.582Z,11.58
2023-05-23T03:09:23.738Z,11.33
2023-05-23T03:11:53.146Z,11.55
2023-05-23T03:14:28.735Z,11.49
2023-05-23T03:17:00.473Z,11.42
2023-05-23T03:19:39.537Z,11.33
2023-05-23T03:22:08.044Z,11.53
2023-05-23T03:24:38.701Z,11.42
2023-05-23T03:27:09.641Z,11.57
2023-05-23T03:29:40.528Z,11.47
2023-05-23T03:32:09.228Z,11.45
2023-05-23T03:34:39.680Z,11.63
2023-05-23T03:37:07.789Z,11.44
2023-05-23T03:39:39.500Z,11.53
2023-05-23T03:42:12.512Z,11.54
2023-05-23T03:44:41.858Z,11.53
2023-05-23T03:47:10.610Z,11.41
2023-05-23T03:49:43.104Z,11.43
2023-05-23T03:52:13.114Z,11.37
2023-05-23T03:54:41.632Z,11.50
2023-05-23T03:57:11.378Z,11.58
2023-05-23T03:59:46.562Z,11.48
2023-05-23T04:02:17.094Z,11.41
2023-05-23T04:04:48.532Z,11.37
2023-05-23T04:07:18.102Z,11.36
2023-05-23T04:09:51.423Z,11.49
2023-05-23T04:12:38.647Z,11.40
2023-05-23T04:15:07.911Z,11.33
2023-05-23T04:17:36.062Z,11.43
2023-05-23T04:20:09.652Z,11.42
2023-05-23T04:22:43.934Z,11.39
2023-05-23T04:25:25.656Z,11.13
2023-05-23T04:27:56.252Z,11.21
2023-05-23T04:30:25.506Z,11.15
2023-05-23T04:32:54.048Z,11.24
2023-05-23T04:35:34.377Z,11.11
2023-05-23T04:38:04.179Z,11.31
2023-05-23T04:40:32.282Z,11.11
2023-05-23T04:43:00.250Z,11.23
2023-05-23T04:45:28.727Z,11.21
2023-05-23T04:47:59.158Z,11.33
2023-05-23T04:50:32.163Z,11.32
2023-05-23T04:53:01.373Z,11.18
2023-05-23T04:55:30.761Z,11.14
2023-05-23T04:57:59.209Z,11.34
2023-05-23T05:00:44.558Z,11.27
2023-05-23T05:03:13.384Z,11.29
2023-05-23T05:05:42.921Z,11.13
2023-05-23T05:08:11.585Z,11.05
2023-05-23T05:10:41.694Z,11.19
2023-05-23T05:13:12.518Z,11.14
2023-05-23T05:15:42.779Z,11.00
2023-05-23T05:18:15.040Z,11.14
2023-05-23T05:20:50.356Z,11.01
2023-05-23T05:23:20.021Z,11.09
2023-05-23T05:25:49.479Z,10.96
2023-05-23T05:28:18.115Z,10.96
2023-05-23T05:30:46.552Z,10.89
2023-05-23T05:33:16.072Z,11.05
2023-05-23T05:35:48.483Z,11.03
2023-05-23T05:38:20.310Z,10.98
2023-05-23T05:40:49.695Z,10.81
2023-05-23T05:43:17.875Z,10.81
2023-05-23T05:45:47.039Z,10.81
2023-05-23T05:48:21.511Z,10.76
2023-05-23T05:50:51.287Z,10.91
2023-05-23T05:53:19.881Z,10.95
2023-05-23T05:55:52.324Z,10.71
2023-05-23T05:58:21.641Z,10.82
2023-05-23T06:00:56.842Z,10.72
2023-05-23T06:03:26.531Z,10.95
2023-05-23T06:05:57.287Z,10.75
2023-05-23T06:08:25.480Z,10.91
2023-05-23T06:10:58.608Z,10.90
2023-05-23T06:13:49.711Z,10.88
2023-05-23T06:16:19.431Z,10.85
2023-05-23T06:19:13.589Z,10.78
2023-05-23T06:21:45.317Z,10.81
2023-05-23T06:24:13.457Z,10.96
2023-05-23T06:26:49.816Z,10.95
2023-05-23T06:29:19.816Z,10.80
2023-05-23T06:31:49.032Z,10.75
2023-05-23T06:34:17.832Z,10.74
2023-05-23T06:36:48.559Z,10.66
2023-05-23T06:39:16.716Z,10.79
2023-05-23T06:41:48.741Z,11.00
2023-05-23T06:44:18.576Z,11.01
2023-05-23T06:46:49.801Z,10.95
2023-05-23T06:49:17.939Z,11.14
2023-05-23T06:51:47.548Z,11.22
2023-05-23T06:54:15.717Z,11.38
2023-05-23T06:56:44.891Z,11.95
2023-05-23T06:59:13.397Z,12.06
2023-05-23T07:01:41.969Z,11.96
2023-05-23T07:04:12.244Z,11.82
2023-05-23T07:06:40.678Z,11.53
2023-05-23T07:09:13.215Z,11.98
2023-05-23T07:11:44.785Z,12.02
2023-05-23T07:14:13.613Z,12.10
2023-05-23T07:16:42.483Z,11.83
2023-05-23T07:19:10.897Z,11.96
2023-05-23T07:21:38.928Z,12.02
2023-05-23T07:24:10.728Z,11.95
2023-05-23T07:26:39.503Z,11.85
2023-05-23T07:29:07.978Z,11.44
2023-05-23T07:31:36.923Z,11.51
2023-05-23T07:34:15.646Z,11.62
2023-05-23T07:36:45.305Z,11.46
2023-05-23T07:39:22.186Z,11.60
2023-05-23T07:41:50.614Z,11.69
2023-05-23T07:44:24.926Z,11.74
2023-05-23T07:46:53.245Z,11.91
2023-05-23T07:49:21.732Z,12.00
2023-05-23T07:51:57.083Z,11.96
2023-05-23T07:54:28.483Z,11.67
2023-05-23T07:56:56.606Z,12.04
2023-05-23T07:59:33.434Z,12.25
2023-05-23T08:02:13.356Z,11.92
2023-05-23T08:04:53.684Z,12.31
2023-05-23T08:08:05.223Z,12.91
2023-05-23T08:11:27.159Z,12.63
2023-05-23T08:14:07.883Z,12.24
2023-05-23T08:16:41.577Z,12.76
2023-05-23T08:19:30.652Z,12.31
2023-05-23T08:21:59.048Z,12.65
2023-05-23T08:25:03.263Z,12.92
2023-05-23T08:27:31.995Z,13.63
2023-05-23T08:30:04.969Z,13.46
2023-05-23T08:32:33.194Z,13.61
2023-05-23T08:35:01.654Z,14.67
2023-05-23T08:37:29.676Z,14.96
2023-05-23T08:39:58.081Z,14.84
2023-05-23T08:42:26.423Z,14.51
2023-05-23T08:44:55.097Z,14.24
2023-05-23T08:47:25.260Z,13.53
2023-05-23T08:49:56.716Z,13.14
2023-05-23T08:52:26.720Z,13.21
2023-05-23T08:54:55.404Z,14.19
2023-05-23T08:57:23.674Z,14.63
2023-05-23T08:59:53.414Z,15.24
2023-05-23T09:02:21.792Z,15.07
2023-05-23T09:04:51.212Z,14.19
2023-05-23T09:07:20.977Z,14.51
2023-05-23T09:09:50.418Z,14.66
2023-05-23T09:12:18.836Z,15.01
2023-05-23T09:14:47.243Z,14.25
2023-05-23T09:17:19.140Z,13.84
2023-05-23T09:19:47.707Z,15.06
2023-05-23T09:22:18.318Z,14.97
2023-05-23T09:24:47.299Z,14.30
2023-05-23T09:27:15.721Z,14.56
2023-05-23T09:29:52.605Z,14.30
2023-05-23T09:32:22.174Z,14.25
2023-05-23T09:34:59.265Z,13.95
2023-05-23T09:37:34.190Z,14.10
2023-05-23T09:40:03.156Z,14.27
2023-05-23T09:42:35.293Z,14.47
2023-05-23T09:45:04.926Z,15.62
2023-05-23T09:47:48.483Z,16.66
2023-05-23T09:50:16.880Z,15.00
2023-05-23T09:52:48.359Z,14.68
2023-05-23T09:55:17.069Z,14.49
2023-05-23T09:57:46.073Z,14.85
2023-05-23T10:00:15.432Z,16.38
2023-05-23T10:02:57.095Z,15.36
2023-05-23T10:05:51.003Z,14.16
2023-05-23T10:08:27.411Z,15.28
2023-05-23T10:11:34.191Z,14.97
2023-05-23T10:14:04.595Z,15.71
2023-05-23T10:16:41.624Z,16.51
2023-05-23T10:19:18.985Z,16.50
2023-05-23T10:21:54.511Z,17.05
2023-05-23T10:24:26.367Z,16.13
2023-05-23T10:26:56.341Z,16.55
2023-05-23T10:29:25.129Z,16.63
2023-05-23T10:31:54.459Z,15.92
2023-05-23T10:34:31.639Z,15.83
2023-05-23T10:37:04.377Z,15.53
2023-05-23T10:39:47.719Z,16.20
2023-05-23T10:42:26.497Z,15.98
2023-05-23T10:44:54.758Z,15.01
2023-05-23T10:47:29.561Z,15.05
2023-05-23T10:49:58.295Z,14.92
2023-05-23T10:52:27.664Z,15.82
2023-05-23T10:54:58.447Z,16.88
2023-05-23T10:57:28.989Z,16.97
2023-05-23T10:59:57.582Z,17.33
2023-05-23T11:02:27.717Z,15.96
2023-05-23T11:05:20.912Z,15.70
2023-05-23T11:08:10.628Z,14.82
2023-05-23T11:10:56.956Z,15.77
2023-05-23T11:13:25.196Z,16.94
2023-05-23T11:15:53.411Z,16.51
2023-05-23T11:18:23.922Z,15.06
2023-05-23T11:20:56.093Z,15.99
2023-05-23T11:23:25.494Z,15.22
2023-05-23T11:25:55.534Z,14.75
2023-05-23T11:28:24.171Z,14.79
2023-05-23T11:30:52.585Z,15.01
2023-05-23T11:33:21.100Z,15.13
2023-05-23T11:35:52.121Z,14.55
2023-05-23T11:38:20.887Z,16.04
2023-05-23T11:40:49.901Z,15.52
2023-05-23T11:43:19.887Z,15.16
2023-05-23T11:45:48.115Z,14.59
2023-05-23T11:48:19.817Z,14.98
2023-05-23T11:50:50.551Z,14.92
2023-05-23T11:53:21.646Z,15.32
2023-05-23T11:55:58.898Z,14.63
2023-05-23T11:58:35.422Z,14.96
2023-05-23T12:01:06.602Z,14.56
2023-05-23T12:03:35.731Z,15.48
2023-05-23T12:06:05.108Z,15.37
2023-05-23T12:08:33.130Z,17.20
2023-05-23T12:11:02.670Z,17.51
2023-05-23T12:13:32.326Z,15.90
2023-05-23T12:16:01.947Z,16.03
2023-05-23T12:18:32.030Z,17.69
2023-05-23T12:21:01.319Z,16.41
2023-05-23T12:23:31.760Z,15.19
2023-05-23T12:26:01.320Z,14.91
2023-05-23T12:28:38.401Z,14.90
2023-05-23T12:31:14.604Z,15.87
2023-05-23T12:33:44.135Z,18.48
2023-05-23T12:36:23.850Z,18.38
2023-05-23T12:38:51.954Z,17.42
2023-05-23T12:41:22.721Z,17.17
2023-05-23T12:43:54.101Z,17.57
2023-05-23T12:46:22.784Z,16.71
2023-05-23T12:48:51.006Z,15.49
2023-05-23T12:51:20.199Z,15.37
2023-05-23T12:53:48.729Z,14.76
2023-05-23T12:56:16.756Z,15.74
2023-05-23T12:58:46.048Z,17.67
2023-05-23T13:01:21.900Z,17.81
2023-05-23T13:04:40.854Z,17.92
2023-05-23T13:07:28.525Z,18.50
2023-05-23T13:10:04.908Z,17.69
2023-05-23T13:13:04.432Z,17.67
2023-05-23T13:15:52.728Z,16.72
2023-05-23T13:18:41.289Z,16.35
2023-05-23T13:21:28.213Z,16.36
2023-05-23T13:24:52.504Z,16.07
2023-05-23T13:28:30.941Z,14.93
2023-05-23T13:30:59.341Z,16.06
2023-05-23T13:33:27.613Z,17.69
2023-05-23T13:36:00.711Z,18.25
2023-05-23T13:38:33.756Z,17.53
2023-05-23T13:41:07.804Z,16.90
2023-05-23T13:43:47.957Z,15.83
2023-05-23T13:46:29.893Z,17.03
2023-05-23T13:48:58.266Z,17.94
2023-05-23T13:51:45.044Z,18.64
2023-05-23T13:54:13.525Z,19.91
2023-05-23T13:56:45.468Z,19.81
2023-05-23T13:59:21.276Z,18.48
2023-05-23T14:01:53.159Z,18.68
2023-05-23T14:04:22.483Z,17.92
2023-05-23T14:07:12.778Z,17.93
2023-05-23T14:09:43.811Z,17.32
2023-05-23T14:12:14.352Z,17.36
2023-05-23T14:14:42.436Z,17.61
2023-05-23T14:17:27.161Z,17.50
2023-05-23T14:19:55.767Z,18.16
2023-05-23T14:22:28.063Z,16.62
2023-05-23T14:27:57.570Z,15.76
2023-05-23T14:30:40.343Z,15.27
2023-05-23T14:33:13.572Z,15.23
2023-05-23T14:35:43.082Z,16.09
2023-05-23T14:38:12.920Z,15.86
2023-05-23T14:40:41.110Z,16.04
2023-05-23T14:43:10.248Z,16.54
2023-05-23T14:45:39.390Z,16.16
2023-05-23T14:48:08.681Z,14.99
2023-05-23T14:50:37.312Z,15.51
2023-05-23T14:53:05.676Z,17.15
2023-05-23T14:55:35.163Z,16.87
2023-05-23T14:58:03.653Z,17.68
2023-05-23T15:00:32.396Z,17.64
2023-05-23T15:03:00.504Z,16.13
2023-05-23T15:05:28.476Z,14.75
2023-05-23T15:07:56.560Z,15.84
2023-05-23T15:10:25.741Z,16.35
2023-05-23T15:12:56.169Z,16.67
2023-05-23T15:15:24.335Z,16.81
2023-05-23T15:17:52.972Z,16.78
2023-05-23T15:20:21.118Z,17.28
2023-05-23T15:22:49.074Z,16.97
2023-05-23T15:25:26.985Z,16.07
2023-05-23T15:28:04.743Z,16.79
2023-05-23T15:30:32.793Z,16.88
2023-05-23T15:33:01.884Z,16.62
2023-05-23T15:35:30.110Z,16.75
2023-05-23T15:37:58.243Z,16.30
2023-05-23T15:40:26.474Z,17.29
2023-05-23T15:42:56.668Z,16.94
2023-05-23T15:45:27.268Z,16.97
2023-05-23T15:47:55.373Z,17.07
2023-05-23T15:50:23.726Z,16.46
2023-05-23T15:52:51.891Z,16.29
2023-05-23T15:55:20.154Z,16.84
2023-05-23T15:57:48.412Z,16.75
2023-05-23T16:00:16.992Z,17.58
2023-05-23T16:02:46.469Z,17.40
2023-05-23T16:05:14.737Z,15.59
2023-05-23T16:07:43.878Z,15.38
2023-05-23T16:10:12.425Z,15.63
2023-05-23T16:12:40.399Z,16.18
2023-05-23T16:15:09.409Z,15.57
2023-05-23T16:17:37.461Z,14.85
2023-05-23T16:20:15.543Z,14.59
2023-05-23T16:22:45.811Z,15.51
2023-05-23T16:25:14.228Z,14.93
2023-05-23T16:27:42.380Z,15.12
2023-05-23T16:30:11.030Z,16.27
2023-05-23T16:32:40.737Z,16.43
2023-05-23T16:35:14.337Z,16.69
2023-05-23T16:37:44.316Z,14.91
2023-05-23T16:40:13.168Z,15.13
2023-05-23T16:42:41.276Z,14.76
2023-05-23T16:45:10.921Z,14.11
2023-05-23T16:47:39.118Z,14.53
2023-05-23T16:50:08.718Z,15.27
2023-05-23T16:52:40.554Z,15.68
2023-05-23T16:55:09.267Z,16.11
2023-05-23T16:57:37.835Z,15.90
2023-05-23T17:00:07.738Z,15.23
2023-05-23T17:02:36.015Z,14.59
2023-05-23T17:05:04.205Z,15.14
2023-05-23T17:10:20.529Z,15.42
2023-05-23T17:12:48.555Z,16.64
2023-05-23T17:15:16.739Z,16.06
2023-05-23T17:17:45.009Z,15.52
2023-05-23T17:20:13.524Z,14.54
2023-05-23T17:22:42.026Z,14.07
2023-05-23T17:25:10.774Z,14.47
2023-05-23T17:27:40.289Z,15.15
2023-05-23T17:30:09.307Z,15.13
2023-05-23T17:32:39.572Z,14.94
2023-05-23T17:35:09.810Z,15.13
2023-05-23T17:37:37.856Z,14.10
2023-05-23T17:40:07.693Z,13.54
2023-05-23T17:42:35.660Z,13.26
2023-05-23T17:45:07.190Z,12.55
2023-05-23T17:47:35.245Z,12.28
2023-05-23T17:50:04.743Z,12.40
2023-05-23T17:52:33.018Z,13.04
2023-05-23T17:55:01.447Z,12.54
2023-05-23T17:57:30.546Z,12.46
2023-05-23T17:59:59.342Z,12.28
2023-05-23T18:02:34.711Z,11.89
2023-05-23T18:05:02.925Z,11.36
2023-05-23T18:07:32.312Z,11.46
2023-05-23T18:10:01.662Z,11.36
2023-05-23T18:12:30.973Z,11.93
2023-05-23T18:14:59.063Z,12.27
2023-05-23T18:17:29.912Z,12.59
2023-05-23T18:20:09.670Z,12.31
2023-05-23T18:23:09.859Z,11.60
2023-05-23T18:25:52.064Z,11.38
2023-05-23T18:28:24.209Z,11.42
2023-05-23T18:30:53.494Z,11.17
2023-05-23T18:33:45.613Z,11.40
2023-05-23T18:37:00.507Z,11.34
2023-05-23T18:39:28.663Z,11.15
2023-05-23T18:41:56.792Z,11.16
2023-05-23T18:44:26.254Z,11.21
2023-05-23T18:46:56.567Z,10.95
2023-05-23T18:49:27.632Z,11.00
2023-05-23T18:51:55.948Z,10.91
2023-05-23T18:54:25.251Z,10.90
2023-05-23T18:56:53.422Z,10.90
2023-05-23T18:59:22.510Z,10.85
2023-05-23T19:01:50.842Z,10.73
2023-05-23T19:04:19.401Z,10.74
2023-05-23T19:06:49.644Z,10.57
2023-05-23T19:09:17.693Z,10.66
2023-05-23T19:11:45.758Z,10.56
2023-05-23T19:14:14.932Z,10.33
2023-05-23T19:16:43.717Z,10.28
2023-05-23T19:19:12.481Z,10.13
2023-05-23T19:21:41.145Z,10.35
2023-05-23T19:24:10.805Z,10.25
2023-05-23T19:26:42.554Z,10.14
2023-05-23T19:29:10.916Z,10.00
2023-05-23T19:31:39.301Z,9.77
2023-05-23T19:34:08.260Z,9.71
2023-05-23T19:36:36.686Z,9.80
2023-05-23T19:39:06.912Z,9.85
2023-05-23T19:41:38.870Z,9.71
2023-05-23T19:44:08.036Z,9.78
2023-05-23T19:46:36.442Z,9.69
2023-05-23T19:49:04.540Z,9.76
2023-05-23T19:51:32.659Z,9.62
2023-05-23T19:54:01.389Z,9.76
2023-05-23T19:56:30.651Z,9.98
2023-05-23T19:59:00.207Z,9.93
2023-05-23T20:01:30.826Z,9.85
2023-05-23T20:03:59.046Z,9.77
2023-05-23T20:06:27.409Z,9.65
2023-05-23T20:08:55.807Z,9.36
2023-05-23T20:11:24.281Z,9.36
2023-05-23T20:13:52.395Z,9.30
2023-05-23T20:16:22.324Z,9.09
2023-05-23T20:18:50.553Z,9.03
2023-05-23T20:21:19.165Z,8.81
2023-05-23T20:23:47.477Z,8.94
2023-05-23T20:26:15.789Z,8.84
2023-05-23T20:28:43.764Z,8.74
2023-05-23T20:31:13.047Z,8.68
2023-05-23T20:33:43.028Z,8.42
2023-05-23T20:36:12.518Z,8.35
2023-05-23T20:38:41.819Z,8.47
2023-05-23T20:41:09.992Z,8.36
2023-05-23T20:43:38.367Z,8.26
2023-05-23T20:46:06.844Z,8.02
2023-05-23T20:48:35.066Z,7.96
2023-05-23T20:51:05.914Z,7.95
2023-05-23T20:53:34.213Z,7.98
2023-05-23T20:56:03.948Z,7.85
2023-05-23T20:58:32.021Z,7.77
2023-05-23T21:01:00.343Z,7.73
2023-05-23T21:03:29.264Z,7.63
2023-05-23T21:06:01.894Z,7.49
2023-05-23T21:08:33.081Z,7.54
2023-05-23T21:11:03.754Z,7.40
2023-05-23T21:13:32.084Z,7.48
2023-05-23T21:16:01.134Z,7.34
2023-05-23T21:18:29.184Z,7.47
2023-05-23T21:20:57.178Z,7.20
2023-05-23T21:23:25.471Z,7.24
2023-05-23T21:25:55.617Z,7.32
2023-05-23T21:28:26.936Z,7.06
2023-05-23T21:30:55.516Z,7.12
2023-05-23T21:33:23.575Z,7.13
2023-05-23T21:35:52.288Z,6.97
2023-05-23T21:38:20.370Z,6.81
2023-05-23T21:40:48.762Z,6.91
2023-05-23T21:43:18.314Z,6.87
2023-05-23T21:45:50.045Z,6.91
2023-05-23T21:48:18.720Z,6.97
2023-05-23T21:50:51.258Z,6.84
2023-05-23T21:53:31.484Z,6.95
2023-05-23T21:55:59.911Z,6.75
2023-05-23T21:58:30.810Z,6.81
2023-05-23T22:00:58.985Z,6.63
2023-05-23T22:03:27.115Z,6.53
2023-05-23T22:05:56.062Z,6.50
2023-05-23T22:08:24.237Z,6.61
2023-05-23T22:10:52.452Z,6.34
2023-05-23T22:13:20.497Z,6.30
2023-05-23T22:15:50.666Z,6.39
2023-05-23T22:18:18.659Z,6.28
2023-05-23T22:20:48.331Z,6.35
2023-05-23T22:23:25.889Z,6.26
2023-05-23T22:25:53.998Z,6.32
2023-05-23T22:28:23.844Z,6.13
2023-05-23T22:30:53.351Z,6.38
2023-05-23T22:33:22.967Z,6.20
2023-05-23T22:35:51.094Z,6.21
2023-05-23T22:38:19.241Z,6.17
2023-05-23T22:40:47.376Z,6.07
2023-05-23T22:43:16.740Z,6.19
2023-05-23T22:45:44.982Z,6.02
2023-05-23T22:48:15.837Z,6.13
2023-05-23T22:50:44.535Z,6.31
2023-05-23T22:53:12.880Z,6.18
2023-05-23T22:55:40.946Z,6.29
2023-05-23T22:58:12.258Z,6.30
2023-05-23T23:00:40.547Z,6.18
2023-05-23T23:03:09.277Z,6.23
2023-05-23T23:05:40.895Z,6.22
2023-05-23T23:08:09.085Z,6.21
2023-05-23T23:10:37.242Z,6.19
2023-05-23T23:13:05.483Z,5.86
2023-05-23T23:15:34.634Z,5.99
2023-05-23T23:18:02.685Z,5.83
2023-05-23T23:20:30.761Z,5.90
2023-05-23T23:23:00.420Z,6.00
2023-05-23T23:25:28.576Z,6.02
2023-05-23T23:27:56.648Z,6.05
2023-05-23T23:30:25.732Z,6.29
2023-05-23T23:32:53.740Z,6.29
2023-05-23T23:35:21.862Z,6.29
2023-05-23T23:37:51.214Z,6.06
2023-05-23T23:40:21.675Z,6.18
2023-05-23T23:42:56.755Z,6.15
2023-05-23T23:45:26.951Z,5.91
2023-05-23T23:47:55.054Z,5.90
2023-05-23T23:50:26.757Z,5.96
2023-05-23T23:53:04.608Z,5.93
2023-05-23T23:55:35.501Z,5.98
2023-05-23T23:58:03.544Z,5.74
